createdAt,value
2023-11-18T00:00:15.862Z,2.54
2023-11-18T00:01:16.003Z,2.55
2023-11-18T00:02:16.235Z,2.55
2023-11-18T00:03:16.129Z,2.56
2023-11-18T00:04:16.204Z,2.56
2023-11-18T00:05:16.261Z,2.57
2023-11-18T00:06:16.336Z,2.58
2023-11-18T00:07:16.411Z,2.59
2023-11-18T00:08:16.502Z,2.60
2023-11-18T00:09:16.599Z,2.60
2023-11-18T00:11:42.525Z,3.57
2023-11-18T00:12:43.617Z,3.16
2023-11-18T00:14:48.989Z,2.92
2023-11-18T00:14:53.998Z,2.78
2023-11-18T00:15:43.893Z,2.70
2023-11-18T00:16:44.053Z,2.66
2023-11-18T00:17:44.042Z,2.64
2023-11-18T00:18:44.125Z,2.63
2023-11-18T00:19:44.203Z,2.63
2023-11-18T00:20:44.364Z,2.63
2023-11-18T00:21:44.346Z,2.64
2023-11-18T00:27:35.317Z,3.55
2023-11-18T00:28:36.415Z,3.14
2023-11-18T00:29:36.469Z,2.89
2023-11-18T00:30:36.566Z,2.77
2023-11-18T00:31:36.701Z,2.70
2023-11-18T00:32:36.956Z,2.67
2023-11-18T00:33:36.798Z,2.65
2023-11-18T00:34:36.929Z,2.63
2023-11-18T00:35:36.957Z,2.63
2023-11-18T00:36:37.052Z,2.64
2023-11-18T00:37:37.164Z,2.63
2023-11-18T00:38:37.237Z,2.62
2023-11-18T00:39:37.315Z,2.62
2023-11-18T00:40:37.460Z,2.62
2023-11-18T00:41:37.441Z,2.64
2023-11-18T00:42:37.526Z,2.65
2023-11-18T00:43:37.613Z,2.66
2023-11-18T00:44:37.676Z,2.66
2023-11-18T00:45:37.743Z,2.67
2023-11-18T00:46:37.949Z,2.67
2023-11-18T00:47:38.040Z,2.68
2023-11-18T00:50:59.568Z,3.65
2023-11-18T00:52:00.651Z,3.25
2023-11-18T00:53:00.759Z,3.01
2023-11-18T00:54:00.814Z,2.87
2023-11-18T00:55:00.868Z,2.81
2023-11-18T00:56:00.984Z,2.78
2023-11-18T00:57:01.017Z,2.78
2023-11-18T00:58:01.091Z,2.77
2023-11-18T00:59:01.186Z,2.77
2023-11-18T01:03:43.299Z,3.72
2023-11-18T01:04:44.399Z,3.33
2023-11-18T01:05:44.447Z,3.11
2023-11-18T01:06:44.524Z,2.97
2023-11-18T01:07:44.720Z,2.90
2023-11-18T01:08:44.663Z,2.87
2023-11-18T01:09:44.739Z,2.85
2023-11-18T01:10:44.845Z,2.87
2023-11-18T01:12:07.093Z,2.87
2023-11-18T01:12:44.958Z,2.87
2023-11-18T01:13:45.075Z,2.86
2023-11-18T01:16:04.912Z,3.81
2023-11-18T01:17:06.012Z,3.39
2023-11-18T01:18:06.207Z,3.12
2023-11-18T01:19:06.181Z,2.98
2023-11-18T01:20:06.259Z,2.89
2023-11-18T01:21:06.343Z,2.84
2023-11-18T01:22:06.476Z,2.81
2023-11-18T01:23:06.526Z,2.79
2023-11-18T01:24:06.587Z,2.77
2023-11-18T01:27:11.653Z,3.67
2023-11-18T01:28:12.733Z,3.27
2023-11-18T01:29:12.824Z,3.03
2023-11-18T01:30:12.884Z,2.90
2023-11-18T01:31:13.015Z,2.82
2023-11-18T01:32:13.220Z,2.78
2023-11-18T01:33:13.166Z,2.75
2023-11-18T01:34:13.207Z,2.74
2023-11-18T01:35:13.276Z,2.73
2023-11-18T01:36:13.367Z,2.73
2023-11-18T01:37:13.443Z,2.72
2023-11-18T01:38:13.525Z,2.72
2023-11-18T01:39:13.602Z,2.73
2023-11-18T01:43:35.914Z,3.67
2023-11-18T01:44:36.980Z,3.27
2023-11-18T01:45:37.089Z,3.03
2023-11-18T01:46:37.188Z,2.90
2023-11-18T01:47:37.251Z,2.83
2023-11-18T01:48:37.318Z,2.80
2023-11-18T01:49:37.414Z,2.79
2023-11-18T01:50:37.478Z,2.79
2023-11-18T01:51:37.569Z,2.80
2023-11-18T01:53:52.435Z,3.82
2023-11-18T01:54:53.511Z,3.41
2023-11-18T01:55:53.604Z,3.16
2023-11-18T01:56:53.669Z,3.03
2023-11-18T01:57:53.761Z,2.96
2023-11-18T01:58:53.878Z,2.93
2023-11-18T01:59:53.937Z,2.91
2023-11-18T02:00:53.998Z,2.89
2023-11-18T02:01:54.606Z,2.89
2023-11-18T02:02:54.329Z,2.89
2023-11-18T02:03:54.360Z,2.90
2023-11-18T02:04:54.382Z,2.91
2023-11-18T02:05:54.437Z,2.91
2023-11-18T02:06:54.497Z,2.91
2023-11-18T02:07:54.688Z,2.90
2023-11-18T02:08:54.658Z,2.90
2023-11-18T02:09:54.746Z,2.89
2023-11-18T02:10:54.821Z,2.88
2023-11-18T02:11:54.927Z,2.88
2023-11-18T02:12:54.987Z,2.87
2023-11-18T02:13:55.152Z,2.86
2023-11-18T02:14:55.123Z,2.86
2023-11-18T02:15:55.175Z,2.86
2023-11-18T02:16:55.283Z,2.86
2023-11-18T02:17:55.388Z,2.87
2023-11-18T02:18:55.440Z,2.88
2023-11-18T02:19:55.478Z,2.89
2023-11-18T02:20:55.559Z,2.90
2023-11-18T02:21:55.693Z,2.90
2023-11-18T02:22:55.747Z,2.91
2023-11-18T02:23:55.799Z,2.92
2023-11-18T02:24:55.878Z,2.92
2023-11-18T02:25:56.028Z,2.93
2023-11-18T02:26:56.029Z,2.93
2023-11-18T02:27:56.097Z,2.93
2023-11-18T02:30:16.824Z,2.93
2023-11-18T02:30:22.711Z,2.89
2023-11-18T02:31:33.560Z,2.86
2023-11-18T02:33:42.915Z,2.87
2023-11-18T02:33:47.990Z,2.86
2023-11-18T02:34:28.810Z,2.85
2023-11-18T02:36:43.716Z,3.91
2023-11-18T02:37:44.823Z,3.50
2023-11-18T02:38:44.877Z,3.26
2023-11-18T02:39:44.985Z,3.13
2023-11-18T02:40:45.419Z,3.05
2023-11-18T02:41:45.182Z,3.01
2023-11-18T02:42:45.880Z,2.99
2023-11-18T02:43:45.925Z,2.98
2023-11-18T02:44:45.395Z,2.99
2023-11-18T02:45:45.480Z,2.99
2023-11-18T02:46:45.541Z,3.00
2023-11-18T02:47:45.625Z,3.00
2023-11-18T02:48:45.704Z,3.01
2023-11-18T02:49:45.796Z,3.01
2023-11-18T02:50:45.863Z,3.02
2023-11-18T02:51:45.931Z,3.03
2023-11-18T02:52:46.066Z,3.03
2023-11-18T02:53:46.179Z,3.04
2023-11-18T02:54:46.224Z,3.05
2023-11-18T02:55:46.270Z,3.05
2023-11-18T02:56:46.379Z,3.05
2023-11-18T02:57:46.453Z,3.05
2023-11-18T02:58:46.553Z,3.04
2023-11-18T02:59:46.598Z,3.04
2023-11-18T03:00:46.727Z,3.04
2023-11-18T03:01:46.853Z,3.04
2023-11-18T03:02:46.870Z,3.04
2023-11-18T03:03:46.939Z,3.04
2023-11-18T03:04:47.019Z,3.05
2023-11-18T03:05:47.080Z,3.05
2023-11-18T03:06:47.161Z,3.05
2023-11-18T03:07:47.253Z,3.05
2023-11-18T03:08:47.318Z,3.05
2023-11-18T03:09:47.364Z,3.04
2023-11-18T03:10:47.457Z,3.04
2023-11-18T03:11:47.527Z,3.04
2023-11-18T03:12:47.578Z,3.04
2023-11-18T03:13:47.695Z,3.04
2023-11-18T03:14:47.758Z,3.04
2023-11-18T03:15:47.876Z,3.03
2023-11-18T03:16:48.013Z,3.02
2023-11-18T03:17:48.006Z,3.00
2023-11-18T03:18:48.096Z,2.99
2023-11-18T03:19:48.194Z,2.99
2023-11-18T03:20:48.246Z,2.98
2023-11-18T03:21:48.327Z,2.97
2023-11-18T03:22:48.656Z,2.97
2023-11-18T03:23:48.466Z,2.97
2023-11-18T03:24:48.575Z,2.97
2023-11-18T03:25:48.616Z,2.97
2023-11-18T03:26:48.685Z,2.97
2023-11-18T03:27:48.763Z,2.97
2023-11-18T03:28:48.869Z,2.96
2023-11-18T03:29:50.711Z,2.96
2023-11-18T03:30:49.061Z,2.95
2023-11-18T03:31:49.099Z,2.94
2023-11-18T03:32:49.169Z,2.93
2023-11-18T03:33:49.265Z,2.92
2023-11-18T03:34:49.374Z,2.92
2023-11-18T03:35:49.412Z,2.92
2023-11-18T03:36:49.511Z,2.92
2023-11-18T03:37:50.201Z,2.92
2023-11-18T03:38:49.663Z,2.92
2023-11-18T03:39:49.738Z,2.91
2023-11-18T03:40:49.822Z,2.91
2023-11-18T03:41:49.925Z,2.90
2023-11-18T03:42:49.968Z,2.89
2023-11-18T03:43:50.070Z,2.88
2023-11-18T03:44:50.120Z,2.87
2023-11-18T03:45:50.251Z,2.86
2023-11-18T03:46:50.305Z,2.85
2023-11-18T03:47:50.371Z,2.84
2023-11-18T03:48:50.454Z,2.83
2023-11-18T03:49:50.591Z,2.83
2023-11-18T03:50:50.641Z,2.83
2023-11-18T03:51:50.735Z,2.82
2023-11-18T03:52:50.803Z,2.81
2023-11-18T03:53:50.825Z,2.80
2023-11-18T03:54:50.911Z,2.79
2023-11-18T03:55:50.975Z,2.78
2023-11-18T03:56:51.070Z,2.78
2023-11-18T03:57:51.137Z,2.78
2023-11-18T03:58:51.250Z,2.78
2023-11-18T03:59:51.290Z,2.79
2023-11-18T04:00:51.395Z,2.80
2023-11-18T04:01:51.539Z,2.80
2023-11-18T04:02:51.632Z,2.80
2023-11-18T04:03:51.746Z,2.80
2023-11-18T04:04:51.719Z,2.80
2023-11-18T04:05:51.800Z,2.80
2023-11-18T04:06:51.890Z,2.79
2023-11-18T04:07:51.981Z,2.79
2023-11-18T04:08:52.019Z,2.78
2023-11-18T04:09:52.097Z,2.76
2023-11-18T04:10:52.239Z,2.74
2023-11-18T04:11:52.240Z,2.73
2023-11-18T04:12:52.320Z,2.71
2023-11-18T04:13:52.412Z,2.70
2023-11-18T04:14:53.178Z,2.68
2023-11-18T04:15:52.514Z,2.67
2023-11-18T04:16:52.662Z,2.67
2023-11-18T04:17:52.733Z,2.67
2023-11-18T04:18:52.816Z,2.67
2023-11-18T04:19:52.906Z,2.66
2023-11-18T04:20:52.941Z,2.66
2023-11-18T04:21:53.001Z,2.65
2023-11-18T04:22:53.098Z,2.64
2023-11-18T04:23:53.137Z,2.64
2023-11-18T04:24:53.248Z,2.64
2023-11-18T04:25:53.341Z,2.63
2023-11-18T04:26:53.402Z,2.63
2023-11-18T04:27:53.493Z,2.63
2023-11-18T04:28:53.584Z,2.63
2023-11-18T04:29:53.619Z,2.63
2023-11-18T04:30:53.706Z,2.63
2023-11-18T04:31:53.802Z,2.63
2023-11-18T04:32:53.891Z,2.63
2023-11-18T04:33:53.924Z,2.63
2023-11-18T04:34:54.103Z,2.63
2023-11-18T04:35:54.097Z,2.62
2023-11-18T04:36:54.213Z,2.62
2023-11-18T04:37:54.257Z,2.61
2023-11-18T04:38:54.337Z,2.61
2023-11-18T04:39:54.396Z,2.61
2023-11-18T04:40:54.541Z,2.61
2023-11-18T04:41:54.578Z,2.61
2023-11-18T04:42:54.639Z,2.60
2023-11-18T04:43:54.735Z,2.59
2023-11-18T04:44:54.793Z,2.58
2023-11-18T04:45:54.870Z,2.57
2023-11-18T04:46:54.968Z,2.56
2023-11-18T04:47:55.144Z,2.55
2023-11-18T04:48:55.235Z,2.54
2023-11-18T04:49:55.275Z,2.54
2023-11-18T04:50:55.266Z,2.53
2023-11-18T04:51:55.350Z,2.52
2023-11-18T04:52:55.443Z,2.52
2023-11-18T04:53:55.521Z,2.52
2023-11-18T04:54:55.563Z,2.52
2023-11-18T04:55:55.652Z,2.53
2023-11-18T04:56:55.723Z,2.53
2023-11-18T04:57:55.802Z,2.53
2023-11-18T04:58:55.907Z,2.52
2023-11-18T04:59:55.947Z,2.52
2023-11-18T05:00:56.072Z,2.52
2023-11-18T05:01:56.182Z,2.52
2023-11-18T05:02:56.287Z,2.53
2023-11-18T05:03:56.319Z,2.54
2023-11-18T05:04:56.400Z,2.54
2023-11-18T05:05:58.452Z,2.55
2023-11-18T05:06:56.495Z,2.56
2023-11-18T05:07:56.669Z,2.56
2023-11-18T05:08:56.764Z,2.56
2023-11-18T05:09:57.280Z,2.57
2023-11-18T05:10:56.919Z,2.57
2023-11-18T05:11:56.917Z,2.57
2023-11-18T05:12:57.173Z,2.56
2023-11-18T05:13:57.791Z,2.55
2023-11-18T05:14:57.191Z,2.54
2023-11-18T05:15:57.242Z,2.54
2023-11-18T05:16:57.369Z,2.54
2023-11-18T05:17:57.467Z,2.55
2023-11-18T05:18:57.542Z,2.55
2023-11-18T05:19:57.634Z,2.55
2023-11-18T05:20:57.666Z,2.56
2023-11-18T05:21:57.745Z,2.58
2023-11-18T05:22:57.874Z,2.58
2023-11-18T05:23:57.885Z,2.59
2023-11-18T05:24:57.967Z,2.59
2023-11-18T05:25:58.079Z,2.59
2023-11-18T05:26:58.155Z,2.59
2023-11-18T05:27:58.196Z,2.59
2023-11-18T05:28:58.326Z,2.59
2023-11-18T05:29:58.374Z,2.59
2023-11-18T05:30:58.514Z,2.60
2023-11-18T05:31:58.608Z,2.60
2023-11-18T05:32:58.683Z,2.60
2023-11-18T05:33:58.666Z,2.61
2023-11-18T05:34:58.846Z,2.62
2023-11-18T05:35:58.831Z,2.62
2023-11-18T05:36:58.943Z,2.63
2023-11-18T05:37:59.027Z,2.64
2023-11-18T05:38:59.075Z,2.65
2023-11-18T05:39:59.162Z,2.65
2023-11-18T05:40:59.230Z,2.66
2023-11-18T05:41:59.790Z,2.67
2023-11-18T05:42:59.422Z,2.67
2023-11-18T05:43:59.458Z,2.66
2023-11-18T05:44:59.529Z,2.66
2023-11-18T05:45:59.627Z,2.66
2023-11-18T05:46:59.748Z,2.66
2023-11-18T05:47:59.883Z,2.67
2023-11-18T05:48:59.863Z,2.68
2023-11-18T05:49:59.953Z,2.69
